createdAt,value
2019-03-29T02:30:31.874Z,22.70
2019-03-29T02:51:52.157Z,28.87
2019-03-29T03:00:39.920Z,24.60
2019-03-29T03:03:47.819Z,27.60
2019-03-29T03:06:40.643Z,27.07
2019-03-29T03:12:28.656Z,26.80
2019-03-29T03:15:17.881Z,23.47
2019-03-29T03:18:06.371Z,26.43
2019-03-29T03:23:46.216Z,27.63
2019-03-29T03:26:40.268Z,27.27
2019-03-29T03:29:25.384Z,26.13
2019-03-29T03:32:09.512Z,31.67
2019-03-29T03:34:52.158Z,24.70
2019-03-29T03:37:47.958Z,26.40
2019-03-29T03:40:33.168Z,26.63
2019-03-29T03:43:22.645Z,26.90
2019-03-29T03:46:03.224Z,24.60
2019-03-29T03:48:40.911Z,26.57
2019-03-29T03:51:31.776Z,28.80
2019-03-29T03:54:33.168Z,28.97
2019-03-29T03:57:14.059Z,27.13
2019-03-29T03:59:49.601Z,28.03
2019-03-29T04:02:28.900Z,34.47
2019-03-29T04:05:13.238Z,26.67
2019-03-29T04:11:02.258Z,28.90
2019-03-29T04:13:43.921Z,27.47
2019-03-29T04:16:19.859Z,31.77
2019-03-29T04:18:59.974Z,34.43
2019-03-29T04:21:36.264Z,31.70
2019-03-29T04:24:13.240Z,29.30
2019-03-29T04:26:48.572Z,32.30
2019-03-29T04:29:25.447Z,32.90
2019-03-29T04:32:01.498Z,30.00
2019-03-29T04:34:43.046Z,27.00
2019-03-29T04:37:21.102Z,28.80
2019-03-29T04:40:07.000Z,30.13
2019-03-29T04:42:31.112Z,32.37
2019-03-29T04:45:02.161Z,27.67
2019-03-29T04:47:34.756Z,28.47
2019-03-29T04:50:08.091Z,28.20
2019-03-29T04:52:40.058Z,28.73
2019-03-29T04:55:11.551Z,29.93
2019-03-29T04:57:41.826Z,29.37
2019-03-29T05:00:15.263Z,34.53
2019-03-29T05:02:50.074Z,28.63
2019-03-29T05:05:24.500Z,30.67
2019-03-29T05:07:59.809Z,27.90
2019-03-29T05:10:33.414Z,29.17
2019-03-29T05:13:03.347Z,33.93
2019-03-29T05:15:34.351Z,27.33
2019-03-29T05:18:08.401Z,29.43
2019-03-29T05:20:38.389Z,32.60
2019-03-29T05:23:11.278Z,28.03
2019-03-29T05:25:44.135Z,30.40
2019-03-29T05:28:18.217Z,34.50
2019-03-29T05:30:58.832Z,31.03
2019-03-29T05:33:33.621Z,33.67
2019-03-29T05:36:09.987Z,37.33
2019-03-29T05:38:45.591Z,35.70
2019-03-29T05:41:19.573Z,29.57
2019-03-29T05:43:49.832Z,35.07
2019-03-29T05:46:26.186Z,34.27
2019-03-29T05:49:01.273Z,37.10
2019-03-29T05:51:35.542Z,39.43
2019-03-29T05:54:14.491Z,35.73
2019-03-29T05:56:48.805Z,34.07
2019-03-29T05:59:19.165Z,34.27
2019-03-29T06:01:51.046Z,34.87
2019-03-29T06:04:33.256Z,38.03
2019-03-29T06:07:10.818Z,34.77
2019-03-29T06:09:48.308Z,40.10
2019-03-29T06:12:22.964Z,37.73
2019-03-29T06:15:24.020Z,37.17
2019-03-29T06:17:54.870Z,35.73
2019-03-29T06:20:38.884Z,35.07
2019-03-29T06:26:27.370Z,35.87
2019-03-29T06:29:02.154Z,38.53
2019-03-29T06:31:45.879Z,33.53
2019-03-29T06:41:10.167Z,31.40
2019-03-29T06:53:47.814Z,35.43
2019-03-29T06:56:31.080Z,31.97
2019-03-29T07:31:53.297Z,22.13
2019-03-29T07:38:13.730Z,22.67
2019-03-29T07:40:48.249Z,22.27
2019-03-29T07:43:30.875Z,24.37
2019-03-29T07:46:09.485Z,22.73
2019-03-29T07:48:48.941Z,23.17
2019-03-29T07:51:22.441Z,21.17
2019-03-29T07:54:27.819Z,23.07
2019-03-29T07:57:10.903Z,19.23
2019-03-29T08:00:07.530Z,22.73
2019-03-29T08:02:47.837Z,23.27
2019-03-29T08:05:23.465Z,24.83
2019-03-29T08:07:54.826Z,23.27
2019-03-29T08:10:30.177Z,20.60
2019-03-29T08:12:58.280Z,18.87
2019-03-29T08:15:28.239Z,18.57
2019-03-29T08:18:01.586Z,21.13
2019-03-29T08:20:41.991Z,18.73
2019-03-29T08:23:02.174Z,18.13
2019-03-29T08:25:32.202Z,17.13
2019-03-29T08:28:09.575Z,16.60
2019-03-29T08:30:41.643Z,18.13
2019-03-29T08:33:11.608Z,16.93
2019-03-29T08:35:41.436Z,20.57
2019-03-29T08:38:11.430Z,15.97
2019-03-29T08:40:46.934Z,17.57
2019-03-29T08:43:33.089Z,21.70
2019-03-29T08:46:02.270Z,16.33
2019-03-29T08:48:32.187Z,14.63
2019-03-29T08:51:02.062Z,17.47
2019-03-29T08:53:31.893Z,16.43
2019-03-29T08:56:01.619Z,18.90
2019-03-29T08:58:31.307Z,17.27
2019-03-29T09:01:01.405Z,15.87
2019-03-29T09:03:31.161Z,18.80
2019-03-29T09:06:01.393Z,18.43
2019-03-29T09:08:31.302Z,17.33
2019-03-29T09:11:01.265Z,18.60
2019-03-29T09:13:31.135Z,17.60
2019-03-29T09:16:01.155Z,16.97
2019-03-29T09:18:31.028Z,19.27
2019-03-29T09:21:00.917Z,14.20
2019-03-29T09:23:30.754Z,16.23
2019-03-29T09:26:00.655Z,18.47
2019-03-29T09:28:32.976Z,15.87
2019-03-29T09:31:02.877Z,14.53
2019-03-29T09:33:38.163Z,15.00
2019-03-29T09:36:16.839Z,14.37
2019-03-29T09:38:49.873Z,13.17
2019-03-29T09:41:19.900Z,14.87
2019-03-29T09:43:54.252Z,17.17
2019-03-29T09:46:24.150Z,15.47
2019-03-29T09:48:54.044Z,15.87
2019-03-29T09:51:23.865Z,12.80
2019-03-29T09:53:53.904Z,14.87
2019-03-29T09:56:37.535Z,12.40
2019-03-29T09:59:16.343Z,16.83
2019-03-29T10:05:04.944Z,13.70
2019-03-29T10:07:34.821Z,11.77
2019-03-29T10:10:06.888Z,12.57
2019-03-29T10:12:43.387Z,14.20
2019-03-29T10:15:15.525Z,16.83
2019-03-29T10:17:45.586Z,15.87
2019-03-29T10:20:15.636Z,14.77
2019-03-29T10:23:08.011Z,14.03
2019-03-29T10:25:50.331Z,13.43
2019-03-29T10:28:21.414Z,12.97
2019-03-29T10:30:51.654Z,14.80
2019-03-29T10:33:24.213Z,14.80
2019-03-29T10:35:54.210Z,15.10
2019-03-29T10:38:24.144Z,13.50
2019-03-29T10:40:54.100Z,14.87
2019-03-29T10:43:24.019Z,15.30
2019-03-29T10:45:55.422Z,14.47
2019-03-29T10:48:25.517Z,15.37
2019-03-29T10:50:57.256Z,13.93
2019-03-29T10:53:28.697Z,14.23
2019-03-29T10:56:05.060Z,13.60
2019-03-29T10:58:45.756Z,13.17
2019-03-29T11:01:17.290Z,16.37
2019-03-29T11:03:49.465Z,17.90
2019-03-29T11:06:22.015Z,16.33
2019-03-29T11:08:52.138Z,13.77
2019-03-29T11:11:25.828Z,17.87
2019-03-29T11:14:01.598Z,16.40
2019-03-29T11:16:36.147Z,17.00
2019-03-29T11:19:08.141Z,16.80
2019-03-29T11:21:38.764Z,16.47
2019-03-29T11:24:09.386Z,19.83
2019-03-29T11:26:39.500Z,14.47
2019-03-29T11:29:09.424Z,15.67
2019-03-29T11:31:39.556Z,14.53
2019-03-29T11:34:12.444Z,16.93
2019-03-29T11:36:42.326Z,15.57
2019-03-29T11:39:12.397Z,23.87
2019-03-29T11:41:42.259Z,16.43
2019-03-29T11:44:12.285Z,16.77
2019-03-29T11:46:42.240Z,21.40
2019-03-29T11:49:12.614Z,17.20
2019-03-29T11:51:42.580Z,16.50
2019-03-29T11:54:12.586Z,18.23
2019-03-29T11:56:47.700Z,23.13
2019-03-29T11:59:21.975Z,15.37
2019-03-29T12:01:51.922Z,14.57
2019-03-29T12:04:22.053Z,13.47
2019-03-29T12:06:56.953Z,14.33
2019-03-29T12:09:30.097Z,14.33
2019-03-29T12:12:28.123Z,14.77
2019-03-29T12:14:52.953Z,15.60
2019-03-29T12:17:26.010Z,15.53
2019-03-29T12:19:56.005Z,16.23
2019-03-29T12:22:25.931Z,16.43
2019-03-29T12:24:55.977Z,15.67
2019-03-29T12:27:25.999Z,15.37
2019-03-29T12:29:56.142Z,20.60
2019-03-29T12:32:26.288Z,15.87
2019-03-29T12:35:04.940Z,14.77
2019-03-29T12:37:37.629Z,14.13
2019-03-29T12:40:10.421Z,17.03
2019-03-29T12:42:40.369Z,17.77
2019-03-29T12:45:10.671Z,18.43
2019-03-29T12:47:42.535Z,18.33
2019-03-29T12:50:13.665Z,14.47
2019-03-29T12:52:43.763Z,15.43
2019-03-29T12:55:26.792Z,16.93
2019-03-29T12:57:58.448Z,14.90
2019-03-29T13:00:28.472Z,28.97
2019-03-29T13:02:59.932Z,14.90
2019-03-29T13:05:32.023Z,15.07
2019-03-29T13:08:02.031Z,14.80
2019-03-29T13:10:31.902Z,16.43
2019-03-29T13:13:01.840Z,16.67
2019-03-29T13:15:31.893Z,15.50
2019-03-29T13:18:01.813Z,14.97
2019-03-29T13:20:33.690Z,15.23
2019-03-29T13:23:05.794Z,16.60
2019-03-29T13:25:38.212Z,19.40
2019-03-29T13:28:08.261Z,14.67
2019-03-29T13:30:38.175Z,14.93
2019-03-29T13:33:08.158Z,16.00
2019-03-29T13:35:38.294Z,16.07
2019-03-29T13:38:14.377Z,15.47
2019-03-29T13:40:44.273Z,16.87
2019-03-29T13:46:10.612Z,14.50
2019-03-29T13:48:53.184Z,14.83
2019-03-29T13:51:34.502Z,15.90
2019-03-29T13:54:07.199Z,15.57
2019-03-29T13:56:50.195Z,19.03
2019-03-29T14:02:23.766Z,13.73
2019-03-29T14:05:04.333Z,15.00
2019-03-29T14:07:34.680Z,19.60
2019-03-29T14:10:07.169Z,16.27
2019-03-29T14:12:40.674Z,15.40
2019-03-29T14:15:13.996Z,21.90
2019-03-29T14:17:48.728Z,15.73
2019-03-29T14:20:21.723Z,15.97
2019-03-29T14:22:59.004Z,17.23
2019-03-29T14:25:29.059Z,15.00
2019-03-29T14:28:05.068Z,17.37
2019-03-29T14:30:35.515Z,16.03
2019-03-29T14:33:05.609Z,17.53
2019-03-29T14:35:35.713Z,15.10
2019-03-29T14:38:05.667Z,15.77
2019-03-29T14:40:38.590Z,16.13
2019-03-29T14:43:09.870Z,15.13
2019-03-29T14:45:39.841Z,15.90
2019-03-29T14:48:19.755Z,16.10
2019-03-29T14:50:50.242Z,18.30
2019-03-29T14:53:26.726Z,16.67
2019-03-29T14:56:38.553Z,15.17
2019-03-29T14:58:40.733Z,15.70
2019-03-29T15:01:10.904Z,15.97
2019-03-29T15:03:40.950Z,15.80
2019-03-29T15:06:16.981Z,16.60
2019-03-29T15:08:49.715Z,15.37
2019-03-29T15:11:25.871Z,16.13
2019-03-29T15:13:52.029Z,13.83
2019-03-29T15:16:38.049Z,16.17
2019-03-29T15:19:27.939Z,16.50
2019-03-29T15:22:02.835Z,16.77
2019-03-29T15:24:37.724Z,14.83
2019-03-29T15:27:08.194Z,14.40
2019-03-29T15:29:40.151Z,15.53
2019-03-29T15:32:12.989Z,20.07
2019-03-29T15:34:42.970Z,14.80
2019-03-29T15:37:16.210Z,15.43
2019-03-29T15:39:53.614Z,13.67
2019-03-29T15:42:23.889Z,15.30
2019-03-29T15:44:56.785Z,15.43
2019-03-29T15:47:28.454Z,18.63
2019-03-29T15:50:01.215Z,17.07
2019-03-29T15:52:33.494Z,15.20
2019-03-29T15:55:06.900Z,18.27
2019-03-29T15:57:38.469Z,18.10
2019-03-29T16:00:11.247Z,15.10
2019-03-29T16:02:41.156Z,16.60
2019-03-29T16:05:11.025Z,15.77
2019-03-29T16:07:40.991Z,17.37
2019-03-29T16:10:10.849Z,16.63
2019-03-29T16:12:40.826Z,19.03
2019-03-29T16:15:12.877Z,17.87
2019-03-29T16:17:42.923Z,16.80
2019-03-29T16:20:12.927Z,18.10
2019-03-29T16:22:42.944Z,17.40
2019-03-29T16:25:15.017Z,18.33
2019-03-29T16:27:44.959Z,16.80
2019-03-29T16:30:17.489Z,17.10
2019-03-29T16:32:47.468Z,16.97
2019-03-29T16:35:17.518Z,17.10
2019-03-29T16:37:56.994Z,15.47
2019-03-29T16:40:24.634Z,14.57
2019-03-29T16:42:57.620Z,16.60
2019-03-29T16:45:29.582Z,19.17
2019-03-29T16:47:59.754Z,14.87
2019-03-29T16:50:29.860Z,18.07
2019-03-29T16:52:59.737Z,18.27
2019-03-29T16:55:29.658Z,16.53
2019-03-29T16:57:59.692Z,19.00
2019-03-29T17:00:29.753Z,18.13
2019-03-29T17:02:59.594Z,15.47
2019-03-29T17:05:29.561Z,17.27
2019-03-29T17:07:59.587Z,20.23
2019-03-29T17:10:29.556Z,18.10
2019-03-29T17:12:59.644Z,14.97
2019-03-29T17:15:29.678Z,17.10
2019-03-29T17:36:21.055Z,16.60
2019-03-29T17:38:51.108Z,16.17
2019-03-29T17:41:21.127Z,14.33
2019-03-29T17:43:51.238Z,14.60
2019-03-29T17:46:21.209Z,13.97
2019-03-29T17:48:51.315Z,12.83
2019-03-29T17:51:21.189Z,16.00
2019-03-29T17:53:51.232Z,14.70
2019-03-29T17:56:26.491Z,16.17
2019-03-29T17:58:56.508Z,16.93
2019-03-29T18:01:26.471Z,14.40
2019-03-29T18:03:56.444Z,12.77
2019-03-29T18:06:26.425Z,14.77
2019-03-29T18:08:56.334Z,16.17
2019-03-29T18:11:26.424Z,16.23
2019-03-29T18:13:56.360Z,17.13
2019-03-29T18:16:30.995Z,17.43
2019-03-29T18:18:58.121Z,18.13
2019-03-29T18:21:30.371Z,16.70
2019-03-29T18:24:00.716Z,15.90
2019-03-29T18:26:32.446Z,19.17
2019-03-29T18:29:02.480Z,24.80
2019-03-29T18:31:32.979Z,16.17
2019-03-29T18:34:03.005Z,20.77
2019-03-29T18:36:33.434Z,18.17
2019-03-29T18:39:05.215Z,19.23
2019-03-29T18:41:37.883Z,20.30
2019-03-29T18:44:07.926Z,18.23
2019-03-29T18:46:44.399Z,25.27
2019-03-29T18:49:11.554Z,22.47
2019-03-29T18:51:41.833Z,22.87
2019-03-29T18:54:11.922Z,23.83
2019-03-29T18:56:42.017Z,24.10
2019-03-29T18:59:11.964Z,23.03
2019-03-29T19:01:42.083Z,21.23
2019-03-29T19:04:14.860Z,21.90
2019-03-29T19:06:43.870Z,23.63
2019-03-29T19:09:13.963Z,22.80
2019-03-29T19:11:44.225Z,21.33
2019-03-29T19:14:16.650Z,21.43
2019-03-29T19:16:58.315Z,23.10
2019-03-29T19:19:18.220Z,19.43
2019-03-29T19:21:48.137Z,21.00
2019-03-29T19:24:18.213Z,26.93
2019-03-29T19:26:48.394Z,23.30
2019-03-29T19:29:20.281Z,19.83
2019-03-29T19:31:50.248Z,19.50
2019-03-29T19:34:20.243Z,20.57
2019-03-29T19:36:50.247Z,23.90
2019-03-29T19:39:20.198Z,22.80
2019-03-29T19:41:51.373Z,26.80
2019-03-29T19:44:27.133Z,23.27
2019-03-29T19:46:57.252Z,26.10
2019-03-29T19:49:27.496Z,24.87
2019-03-29T19:51:57.894Z,27.30
2019-03-29T19:54:28.681Z,22.53
2019-03-29T19:57:03.086Z,22.90
2019-03-29T19:59:33.084Z,24.73
2019-03-29T20:02:05.563Z,26.60
2019-03-29T20:04:37.044Z,24.47
2019-03-29T20:07:11.312Z,25.00
2019-03-29T20:09:42.174Z,25.30
2019-03-29T20:12:14.160Z,26.40
2019-03-29T20:14:45.979Z,28.63
2019-03-29T20:17:27.288Z,25.40
2019-03-29T20:19:53.807Z,24.63
2019-03-29T20:22:23.923Z,27.77
2019-03-29T20:24:56.961Z,26.43
2019-03-29T20:27:27.088Z,28.50
2019-03-29T20:30:00.311Z,23.70
2019-03-29T20:32:30.248Z,26.63
2019-03-29T20:35:02.835Z,26.43
2019-03-29T20:37:33.953Z,31.07
2019-03-29T20:40:11.163Z,30.77
2019-03-29T20:42:41.404Z,32.60
2019-03-29T20:45:11.551Z,35.10
2019-03-29T20:47:44.344Z,38.47
2019-03-29T20:50:15.945Z,35.70
2019-03-29T20:52:47.782Z,39.30
2019-03-29T20:55:22.285Z,31.33
2019-03-29T20:57:52.515Z,32.07
2019-03-29T21:00:22.595Z,29.80
2019-03-29T21:02:58.520Z,27.67
2019-03-29T21:05:30.916Z,30.10
2019-03-29T21:08:03.462Z,29.20
2019-03-29T21:10:35.158Z,28.00
2019-03-29T21:13:07.285Z,31.47
2019-03-29T21:15:37.600Z,26.00
2019-03-29T21:18:07.455Z,30.77
2019-03-29T21:31:00.901Z,32.43
2019-03-29T21:43:46.700Z,39.93
2019-03-29T21:46:51.798Z,42.03
2019-03-29T21:50:32.687Z,35.93
2019-03-29T22:40:56.312Z,38.37
2019-03-29T22:48:51.268Z,36.83
2019-03-29T23:30:31.893Z,35.73
2019-03-29T23:39:47.347Z,40.97
2019-03-29T23:43:00.860Z,40.80
2019-03-29T23:49:33.017Z,39.93
2019-03-29T23:52:26.688Z,39.83
2019-03-29T23:58:30.902Z,45.90
